Time;durP1;ratioP1;P1;durP2;ratioP2;P2;SDS_P1;SDS_P2;PMS_P1;PMS_P2;Temp;Humidity;BMP_temperature;BMP_pressure;BME280_temperature;BME280_humidity;BME280_pressure;Samples;Min_cycle;Max_cycle;Signal;HPM_P1;HPM_P2
2021/09/23 00:01:38;;;;;;;12.83;8.37;;;7.60;99.90;;;;;;5044383;28;20186;-82
2021/09/23 00:06:48;;;;;;;11.50;8.17;;;7.50;99.90;;;;;;5045570;28;20252;-82
2021/09/23 00:09:14;;;;;;;11.80;8.30;;;7.50;99.90;;;;;;5043559;28;20186;-82
2021/09/23 00:11:40;;;;;;;13.23;8.53;;;7.50;99.90;;;;;;5042737;28;20241;-82
2021/09/23 00:14:06;;;;;;;14.43;8.83;;;7.40;99.90;;;;;;5042892;28;20289;-82
2021/09/23 00:16:32;;;;;;;11.93;8.07;;;7.50;99.90;;;;;;5043740;28;20221;-82
2021/09/23 00:18:57;;;;;;;13.70;8.47;;;7.50;99.90;;;;;;5042147;28;20634;-82
2021/09/23 00:21:23;;;;;;;11.33;8.37;;;7.50;99.90;;;;;;5043203;28;20228;-82
2021/09/23 00:23:50;;;;;;;10.40;7.23;;;7.40;99.90;;;;;;5044649;28;20171;-81
2021/09/23 00:26:16;;;;;;;12.37;8.60;;;7.40;99.90;;;;;;5043768;28;20277;-82
2021/09/23 00:28:43;;;;;;;15.17;8.70;;;7.40;99.90;;;;;;5043451;28;20198;-82
2021/09/23 00:31:09;;;;;;;14.63;9.40;;;7.40;99.90;;;;;;5043340;28;20182;-82
2021/09/23 00:33:35;;;;;;;12.53;7.73;;;7.40;99.90;;;;;;5042595;28;20505;-81
2021/09/23 00:36:00;;;;;;;11.23;8.67;;;7.30;99.90;;;;;;5043197;28;20687;-81
2021/09/23 00:38:26;;;;;;;12.10;7.70;;;7.30;99.90;;;;;;5044709;28;20177;-82
2021/09/23 00:40:52;;;;;;;12.07;8.53;;;7.30;99.90;;;;;;5042871;28;20187;-82
2021/09/23 00:43:18;;;;;;;12.90;8.60;;;7.30;99.90;;;;;;5045040;28;20179;-82
2021/09/23 00:45:44;;;;;;;13.47;8.17;;;7.20;99.90;;;;;;5043952;28;20280;-82
2021/09/23 00:48:09;;;;;;;17.53;8.27;;;7.20;99.90;;;;;;5046322;28;20202;-82
2021/09/23 00:50:35;;;;;;;10.50;7.93;;;7.10;99.90;;;;;;5046845;28;20183;-82
2021/09/23 00:53:01;;;;;;;10.15;8.10;;;7.10;99.90;;;;;;5044777;28;20247;-81
2021/09/23 00:55:27;;;;;;;11.57;7.90;;;7.10;99.90;;;;;;5041629;28;20177;-82
2021/09/23 00:57:52;;;;;;;10.33;8.20;;;7.10;99.90;;;;;;5046773;28;20204;-82
2021/09/23 01:00:18;;;;;;;9.90;7.17;;;7.10;99.90;;;;;;5056252;28;20201;-81
2021/09/23 01:02:45;;;;;;;11.57;7.77;;;7.10;99.90;;;;;;5055451;28;20172;-81
2021/09/23 01:05:11;;;;;;;11.53;8.00;;;7.10;99.90;;;;;;5047752;28;20278;-82
2021/09/23 01:07:43;;;;;;;12.60;7.60;;;7.10;99.90;;;;;;5041770;28;20209;-82
2021/09/23 01:10:10;;;;;;;11.37;8.10;;;7.10;99.90;;;;;;5042289;28;20171;-82
2021/09/23 01:12:35;;;;;;;10.23;8.30;;;7.00;99.90;;;;;;5042214;28;20180;-81
2021/09/23 01:15:01;;;;;;;12.20;7.40;;;7.00;99.90;;;;;;5040919;28;20292;-82
2021/09/23 01:17:27;;;;;;;13.73;8.70;;;7.00;99.90;;;;;;5036428;28;20288;-82
2021/09/23 01:19:52;;;;;;;8.90;6.93;;;6.90;99.90;;;;;;5037366;28;20175;-82
2021/09/23 01:22:18;;;;;;;11.87;8.50;;;6.90;99.90;;;;;;5041355;28;20177;-82
2021/09/23 01:24:45;;;;;;;11.27;7.27;;;6.90;99.90;;;;;;5041203;28;20221;-82
2021/09/23 01:27:12;;;;;;;12.20;7.93;;;6.80;99.90;;;;;;5041541;28;20216;-82
2021/09/23 01:29:39;;;;;;;11.90;8.37;;;6.70;99.90;;;;;;5041785;28;20204;-82
2021/09/23 01:32:06;;;;;;;11.30;8.30;;;6.70;99.90;;;;;;5043081;28;20173;-82
2021/09/23 01:34:33;;;;;;;10.23;7.23;;;6.70;99.90;;;;;;5041619;28;20204;-82
2021/09/23 01:36:59;;;;;;;9.13;7.03;;;6.60;99.90;;;;;;5042988;28;20659;-82
2021/09/23 01:39:26;;;;;;;10.83;7.73;;;6.60;99.90;;;;;;5041965;28;20176;-82
2021/09/23 01:41:53;;;;;;;10.77;8.17;;;6.50;99.90;;;;;;5043311;28;20219;-82
2021/09/23 01:44:19;;;;;;;10.53;7.90;;;6.50;99.90;;;;;;5042938;28;20251;-82
2021/09/23 01:46:45;;;;;;;12.33;7.40;;;6.50;99.90;;;;;;5041756;28;20238;-82
2021/09/23 01:49:11;;;;;;;12.30;7.63;;;6.50;99.90;;;;;;5042533;28;20646;-82
2021/09/23 01:51:37;;;;;;;8.93;7.13;;;6.50;99.90;;;;;;5042103;28;20670;-82
2021/09/23 01:54:03;;;;;;;13.13;7.90;;;6.50;99.90;;;;;;5041828;28;20230;-82
2021/09/23 01:56:29;;;;;;;10.83;7.93;;;6.50;99.90;;;;;;5041434;28;20329;-82
2021/09/23 01:58:54;;;;;;;11.50;8.43;;;6.50;99.90;;;;;;5042125;28;20227;-82
2021/09/23 02:01:21;;;;;;;11.93;8.57;;;6.60;99.90;;;;;;5041611;28;20176;-82
2021/09/23 02:03:47;;;;;;;11.00;7.60;;;6.60;99.90;;;;;;5042249;28;20255;-82
2021/09/23 02:06:13;;;;;;;8.93;7.47;;;6.60;99.90;;;;;;5041684;28;20253;-82
2021/09/23 02:08:39;;;;;;;10.23;7.60;;;6.60;99.90;;;;;;5041644;28;20220;-82
2021/09/23 02:11:05;;;;;;;13.13;8.23;;;6.60;99.90;;;;;;5042774;28;20180;-83
2021/09/23 02:13:32;;;;;;;12.27;7.43;;;6.60;99.90;;;;;;5041098;28;20215;-82
2021/09/23 02:15:57;;;;;;;9.13;7.47;;;6.50;99.90;;;;;;5041453;28;20187;-82
2021/09/23 02:18:23;;;;;;;11.80;8.33;;;6.50;99.90;;;;;;5041958;28;20608;-82
2021/09/23 02:20:49;;;;;;;11.17;7.27;;;6.40;99.90;;;;;;5042571;28;20180;-82
2021/09/23 02:23:15;;;;;;;9.10;7.17;;;6.40;99.90;;;;;;5042659;28;20172;-82
2021/09/23 02:25:41;;;;;;;11.57;7.63;;;6.40;99.90;;;;;;5042352;28;20217;-82
2021/09/23 02:28:06;;;;;;;12.87;8.77;;;6.40;99.90;;;;;;5044185;28;20213;-82
2021/09/23 02:30:32;;;;;;;12.20;8.43;;;6.40;99.90;;;;;;5044516;28;20175;-82
2021/09/23 02:32:58;;;;;;;10.57;7.93;;;6.40;99.90;;;;;;5041687;28;20182;-82
2021/09/23 02:35:23;;;;;;;11.63;8.47;;;6.40;99.90;;;;;;5041470;28;20207;-83
2021/09/23 02:37:49;;;;;;;12.10;7.93;;;6.30;99.90;;;;;;5040986;28;20223;-82
2021/09/23 02:40:15;;;;;;;11.27;8.07;;;6.30;99.90;;;;;;5042764;28;20171;-82
2021/09/23 02:42:42;;;;;;;13.57;7.87;;;6.20;99.90;;;;;;5041225;28;20186;-82
2021/09/23 02:45:09;;;;;;;11.13;8.10;;;6.20;99.90;;;;;;5040512;28;20270;-82
2021/09/23 02:47:35;;;;;;;12.60;7.83;;;6.20;99.90;;;;;;5040252;28;20210;-82
2021/09/23 02:50:01;;;;;;;11.30;8.20;;;6.20;99.90;;;;;;5040230;28;20183;-83
2021/09/23 02:52:27;;;;;;;14.13;8.80;;;6.20;99.90;;;;;;5040677;28;20630;-82
2021/09/23 02:54:53;;;;;;;13.23;9.90;;;6.10;99.90;;;;;;5041861;28;20289;-82
2021/09/23 02:57:18;;;;;;;14.47;8.63;;;6.10;99.90;;;;;;5044309;28;20228;-82
2021/09/23 02:59:45;;;;;;;15.37;9.57;;;6.10;99.90;;;;;;5048218;28;20170;-81
2021/09/23 03:02:11;;;;;;;16.13;10.23;;;6.00;99.90;;;;;;5051824;28;20243;-81
2021/09/23 03:04:37;;;;;;;15.47;10.10;;;6.00;99.90;;;;;;5050708;28;20206;-82
2021/09/23 03:07:02;;;;;;;13.97;9.13;;;6.00;99.90;;;;;;5047276;28;20207;-82
2021/09/23 03:09:28;;;;;;;12.80;9.03;;;6.00;99.90;;;;;;5044070;28;20544;-82
2021/09/23 03:11:54;;;;;;;14.87;8.97;;;6.00;99.90;;;;;;5044071;28;20182;-82
2021/09/23 03:14:20;;;;;;;12.40;8.83;;;6.00;99.90;;;;;;5045550;28;20218;-82
2021/09/23 03:16:45;;;;;;;13.33;7.87;;;6.00;99.90;;;;;;5041377;28;20660;-82
2021/09/23 03:19:11;;;;;;;13.00;7.77;;;6.00;99.90;;;;;;5042547;28;20172;-82
2021/09/23 03:21:37;;;;;;;11.70;8.30;;;6.00;99.90;;;;;;5040630;28;20172;-82
2021/09/23 03:24:04;;;;;;;12.23;8.60;;;5.90;99.90;;;;;;5039415;28;20179;-82
2021/09/23 03:26:30;;;;;;;11.97;8.10;;;6.00;99.90;;;;;;5037959;28;20198;-82
2021/09/23 03:28:56;;;;;;;13.60;8.77;;;6.00;99.90;;;;;;5040417;28;20436;-82
2021/09/23 03:31:22;;;;;;;12.20;8.20;;;6.00;99.90;;;;;;5044142;28;20174;-82
2021/09/23 03:33:47;;;;;;;10.87;7.33;;;6.00;99.90;;;;;;5042040;28;20569;-81
2021/09/23 03:36:13;;;;;;;10.00;7.10;;;5.90;99.90;;;;;;5043475;28;20659;-82
2021/09/23 03:38:40;;;;;;;13.10;7.80;;;5.90;99.90;;;;;;5041334;28;20216;-82
2021/09/23 03:41:05;;;;;;;11.77;7.40;;;5.80;99.90;;;;;;5042178;28;20185;-82
2021/09/23 03:43:31;;;;;;;8.67;6.73;;;5.80;99.90;;;;;;5041813;28;20420;-82
2021/09/23 03:46:03;;;;;;;11.47;7.27;;;5.80;99.90;;;;;;5041636;28;20186;-81
2021/09/23 03:48:29;;;;;;;9.03;7.03;;;5.80;99.90;;;;;;5041204;28;20170;-82
2021/09/23 03:50:55;;;;;;;8.23;6.90;;;5.80;99.90;;;;;;5042356;28;20189;-82
2021/09/23 03:53:21;;;;;;;9.80;7.00;;;5.70;99.90;;;;;;5040863;28;20447;-82
2021/09/23 03:55:46;;;;;;;10.50;7.57;;;5.70;99.90;;;;;;5041005;28;20545;-82
2021/09/23 03:58:12;;;;;;;9.80;7.73;;;5.60;99.90;;;;;;5040665;28;20275;-82
2021/09/23 04:00:38;;;;;;;9.60;6.87;;;5.70;99.90;;;;;;5042302;28;20190;-82
2021/09/23 04:03:03;;;;;;;11.27;7.87;;;5.60;99.90;;;;;;5039875;28;20182;-82
2021/09/23 04:05:29;;;;;;;11.40;7.07;;;5.60;99.90;;;;;;5041763;28;20177;-82
2021/09/23 04:07:55;;;;;;;9.03;6.93;;;5.60;99.90;;;;;;5041615;28;20232;-82
2021/09/23 04:10:22;;;;;;;10.00;7.27;;;5.60;99.90;;;;;;5040171;28;20213;-82
2021/09/23 04:12:49;;;;;;;11.73;7.03;;;5.50;99.90;;;;;;5043399;28;20175;-82
2021/09/23 04:15:15;;;;;;;11.93;7.37;;;5.50;99.90;;;;;;5043327;28;20460;-82
2021/09/23 04:17:41;;;;;;;8.80;6.43;;;5.40;99.90;;;;;;5042318;28;20205;-82
2021/09/23 04:20:07;;;;;;;11.33;7.60;;;5.40;99.90;;;;;;5041761;28;20228;-82
2021/09/23 04:22:33;;;;;;;8.63;6.80;;;5.40;99.90;;;;;;5041107;28;20597;-82
2021/09/23 04:24:59;;;;;;;9.20;6.67;;;5.40;99.90;;;;;;5037558;28;20178;-82
2021/09/23 04:27:24;;;;;;;8.47;6.60;;;5.40;99.90;;;;;;5037361;28;20292;-82
2021/09/23 04:29:50;;;;;;;10.33;6.47;;;5.40;99.90;;;;;;5035640;28;20182;-82
2021/09/23 04:32:16;;;;;;;8.20;6.57;;;5.30;99.90;;;;;;5039345;28;20181;-82
2021/09/23 04:34:42;;;;;;;11.07;6.87;;;5.20;99.90;;;;;;5040923;28;20696;-83
2021/09/23 04:37:07;;;;;;;9.33;7.23;;;5.20;99.90;;;;;;5042487;28;20197;-82
2021/09/23 04:39:33;;;;;;;8.57;5.83;;;5.20;99.90;;;;;;5043684;28;20178;-82
2021/09/23 04:42:00;;;;;;;9.20;6.63;;;5.20;99.90;;;;;;5044566;28;20181;-82
2021/09/23 04:44:26;;;;;;;8.57;6.53;;;5.20;99.90;;;;;;5041440;28;20167;-82
2021/09/23 04:46:52;;;;;;;7.20;5.97;;;5.30;99.90;;;;;;5042663;28;20455;-82
2021/09/23 04:49:17;;;;;;;9.23;6.73;;;5.20;99.90;;;;;;5041131;28;20182;-82
2021/09/23 04:51:43;;;;;;;8.40;5.90;;;5.20;99.90;;;;;;5041191;28;20182;-82
2021/09/23 04:54:09;;;;;;;8.80;6.23;;;5.20;99.90;;;;;;5040817;28;20202;-83
2021/09/23 04:56:35;;;;;;;7.63;6.10;;;5.20;99.90;;;;;;5042221;28;20244;-84
2021/09/23 04:59:02;;;;;;;9.37;6.67;;;5.20;99.90;;;;;;5041803;28;20170;-82
2021/09/23 05:01:27;;;;;;;8.83;6.03;;;5.10;99.90;;;;;;5041286;28;20171;-82
2021/09/23 05:03:54;;;;;;;11.23;6.50;;;5.10;99.90;;;;;;5041965;28;20424;-83
2021/09/23 05:06:20;;;;;;;8.43;6.30;;;5.00;99.90;;;;;;5043927;28;20194;-82
2021/09/23 05:08:45;;;;;;;9.20;7.17;;;5.00;99.90;;;;;;5043194;28;20419;-83
2021/09/23 05:11:11;;;;;;;7.50;6.10;;;5.10;99.90;;;;;;5041366;28;20178;-82
2021/09/23 05:13:37;;;;;;;11.37;7.23;;;5.10;99.90;;;;;;5041800;28;20202;-82
2021/09/23 05:16:03;;;;;;;10.23;6.37;;;5.10;99.90;;;;;;5043336;28;20174;-84
2021/09/23 05:18:29;;;;;;;9.13;6.07;;;5.10;99.90;;;;;;5041996;28;20174;-83
2021/09/23 05:20:54;;;;;;;12.83;7.60;;;5.10;99.90;;;;;;5042558;28;20224;-83
2021/09/23 05:23:20;;;;;;;8.67;6.77;;;5.10;99.90;;;;;;5043235;28;20549;-83
2021/09/23 05:25:45;;;;;;;11.37;6.80;;;5.10;99.90;;;;;;5040877;28;20178;-82
2021/09/23 05:28:11;;;;;;;9.00;7.00;;;5.10;99.90;;;;;;5041789;28;20226;-82
2021/09/23 05:30:37;;;;;;;10.03;7.30;;;5.20;99.90;;;;;;5042544;28;20209;-84
2021/09/23 05:33:03;;;;;;;13.43;8.30;;;5.30;99.90;;;;;;5043245;28;20517;-83
2021/09/23 05:35:29;;;;;;;11.53;7.87;;;5.40;99.90;;;;;;5041512;28;20213;-83
2021/09/23 05:37:54;;;;;;;12.53;8.10;;;5.40;99.90;;;;;;5043496;28;20436;-83
2021/09/23 05:40:21;;;;;;;14.40;8.97;;;5.50;99.90;;;;;;5044269;28;20620;-83
2021/09/23 05:42:47;;;;;;;14.83;8.87;;;5.60;99.90;;;;;;5039579;28;20213;-82
2021/09/23 05:45:13;;;;;;;14.37;8.63;;;5.60;99.90;;;;;;5039422;28;20789;-84
2021/09/23 05:47:40;;;;;;;12.70;8.20;;;5.70;99.90;;;;;;5040653;28;20285;-84
2021/09/23 05:50:07;;;;;;;11.20;7.53;;;5.80;99.90;;;;;;5038800;28;20475;-84
2021/09/23 05:52:33;;;;;;;10.93;7.70;;;5.90;99.90;;;;;;5038677;28;20987;-84
2021/09/23 05:54:59;;;;;;;12.17;7.87;;;6.00;99.90;;;;;;5038510;28;20460;-84
2021/09/23 05:57:32;;;;;;;10.87;7.63;;;6.10;99.90;;;;;;5040787;28;20274;-85
2021/09/23 05:59:59;;;;;;;12.10;8.13;;;6.20;99.90;;;;;;5039519;28;20194;-83
2021/09/23 06:02:25;;;;;;;10.43;7.10;;;6.20;99.90;;;;;;5040868;28;20225;-84
2021/09/23 06:04:50;;;;;;;10.10;7.30;;;6.30;99.90;;;;;;5038660;28;20420;-84
2021/09/23 06:07:17;;;;;;;11.00;7.73;;;6.40;99.90;;;;;;5038300;28;20201;-85
2021/09/23 06:09:42;;;;;;;12.27;6.90;;;6.50;99.90;;;;;;5038441;28;20209;-84
2021/09/23 06:12:08;;;;;;;10.67;7.27;;;6.60;99.90;;;;;;5038601;28;20429;-84
2021/09/23 06:14:35;;;;;;;11.00;7.83;;;6.60;99.90;;;;;;5041284;28;20206;-82
2021/09/23 06:17:00;;;;;;;9.17;7.13;;;6.70;99.90;;;;;;5040984;28;20436;-82
2021/09/23 06:19:26;;;;;;;10.53;6.63;;;6.80;99.90;;;;;;5041242;28;20405;-82
2021/09/23 06:21:51;;;;;;;10.60;7.07;;;6.90;99.90;;;;;;5040439;28;20178;-82
2021/09/23 06:24:17;;;;;;;9.37;6.63;;;6.90;99.90;;;;;;5039122;28;20182;-82
2021/09/23 06:26:43;;;;;;;8.90;6.80;;;7.10;99.90;;;;;;5038856;28;20220;-82
2021/09/23 06:29:09;;;;;;;7.50;6.23;;;7.10;99.90;;;;;;5040387;28;20171;-82
2021/09/23 06:31:35;;;;;;;11.27;7.53;;;7.30;99.90;;;;;;5039268;28;20178;-82
2021/09/23 06:34:01;;;;;;;12.17;6.23;;;7.30;99.90;;;;;;5038999;28;20214;-82
2021/09/23 06:36:26;;;;;;;8.77;6.40;;;7.40;99.90;;;;;;5040139;28;20194;-82
2021/09/23 06:38:52;;;;;;;9.77;7.00;;;7.50;99.90;;;;;;5040142;28;20232;-82
2021/09/23 06:41:18;;;;;;;8.90;6.50;;;7.60;99.90;;;;;;5040775;28;20171;-82
2021/09/23 06:43:44;;;;;;;11.60;6.13;;;7.70;99.90;;;;;;5040046;28;20606;-82
2021/09/23 06:46:13;;;;;;;11.30;5.73;;;7.90;99.90;;;;;;5040800;28;20175;-82
2021/09/23 06:48:39;;;;;;;21.80;6.60;;;8.00;99.90;;;;;;5039228;28;20328;-82
2021/09/23 06:51:04;;;;;;;8.37;5.67;;;8.20;99.90;;;;;;5041114;28;20783;-82
2021/09/23 06:53:30;;;;;;;9.77;5.87;;;8.30;99.90;;;;;;5040367;28;20216;-82
2021/09/23 06:55:56;;;;;;;5.80;4.67;;;8.40;99.90;;;;;;5038278;28;20248;-82
2021/09/23 06:58:21;;;;;;;6.33;4.70;;;8.50;99.90;;;;;;5041072;28;20187;-82
2021/09/23 07:00:47;;;;;;;5.97;4.80;;;8.60;99.90;;;;;;5039395;28;20178;-82
2021/09/23 07:03:13;;;;;;;6.07;4.43;;;8.70;99.90;;;;;;5040192;28;20181;-82
2021/09/23 07:05:42;;;;;;;8.73;5.10;;;8.80;99.90;;;;;;5042594;28;20180;-82
2021/09/23 07:08:09;;;;;;;8.37;4.10;;;8.80;99.90;;;;;;5042703;28;20237;-82
2021/09/23 07:10:34;;;;;;;6.23;4.70;;;8.90;99.90;;;;;;5043664;28;20182;-82
2021/09/23 07:13:00;;;;;;;4.83;4.33;;;9.10;99.90;;;;;;5042340;28;20185;-82
2021/09/23 07:15:26;;;;;;;4.63;4.17;;;9.20;99.90;;;;;;5042885;28;20240;-82
2021/09/23 07:17:51;;;;;;;5.00;4.20;;;9.30;99.90;;;;;;5044689;28;20202;-82
2021/09/23 07:20:17;;;;;;;5.73;4.00;;;9.40;99.90;;;;;;5044511;28;20176;-82
2021/09/23 07:22:42;;;;;;;6.40;4.03;;;9.50;99.90;;;;;;5045504;28;20171;-81
2021/09/23 07:25:09;;;;;;;4.60;3.90;;;9.60;99.90;;;;;;5045909;28;20190;-82
2021/09/23 07:27:35;;;;;;;4.57;4.10;;;9.70;99.90;;;;;;5043345;28;20221;-81
2021/09/23 07:30:00;;;;;;;5.37;3.77;;;9.80;99.90;;;;;;5040897;28;20179;-82
2021/09/23 07:32:26;;;;;;;6.40;4.10;;;10.10;99.90;;;;;;5039329;28;20189;-81
2021/09/23 07:34:52;;;;;;;6.70;3.40;;;10.30;99.90;;;;;;5038583;28;20205;-81
2021/09/23 07:37:17;;;;;;;5.43;3.40;;;10.50;99.90;;;;;;5036779;28;20207;-82
2021/09/23 07:39:43;;;;;;;5.10;3.87;;;10.80;99.90;;;;;;5037270;28;20176;-81
2021/09/23 07:42:09;;;;;;;4.47;3.20;;;11.00;99.90;;;;;;5037301;28;20181;-82
2021/09/23 07:44:36;;;;;;;3.87;3.43;;;11.30;99.90;;;;;;5040481;28;20698;-82
2021/09/23 07:47:03;;;;;;;5.30;3.03;;;11.40;99.90;;;;;;5042274;28;20212;-82
2021/09/23 07:49:28;;;;;;;5.27;3.43;;;11.60;99.90;;;;;;5043281;28;20182;-82
2021/09/23 07:51:54;;;;;;;6.43;2.77;;;11.80;99.90;;;;;;5044121;28;20316;-81
2021/09/23 07:54:20;;;;;;;3.53;2.93;;;12.30;99.90;;;;;;5043669;28;20244;-82
2021/09/23 07:56:46;;;;;;;4.00;3.10;;;12.90;99.90;;;;;;5042513;28;20205;-82
2021/09/23 07:59:11;;;;;;;3.00;2.70;;;13.50;99.90;;;;;;5044519;28;20174;-82
2021/09/23 08:01:37;;;;;;;4.40;2.83;;;14.10;99.90;;;;;;5044097;28;20182;-82
2021/09/23 08:04:04;;;;;;;4.73;2.80;;;14.80;99.90;;;;;;5045000;28;20185;-82
2021/09/23 08:06:29;;;;;;;3.53;2.60;;;15.40;99.90;;;;;;5045473;28;20198;-82
2021/09/23 08:08:57;;;;;;;2.93;2.60;;;15.80;99.90;;;;;;5041326;28;20227;-82
2021/09/23 08:11:24;;;;;;;2.57;2.23;;;16.40;99.90;;;;;;5040077;28;20181;-82
2021/09/23 08:13:50;;;;;;;4.63;2.77;;;16.90;99.90;;;;;;5036584;28;20213;-82
2021/09/23 08:16:16;;;;;;;6.87;2.80;;;17.30;99.90;;;;;;5040307;28;20224;-82
2021/09/23 08:18:41;;;;;;;2.50;2.30;;;17.60;99.90;;;;;;5040763;28;20641;-81
2021/09/23 08:21:07;;;;;;;3.20;2.90;;;18.00;99.90;;;;;;5042475;28;20177;-82
2021/09/23 08:23:33;;;;;;;4.77;2.77;;;18.60;99.90;;;;;;5041199;28;20176;-82
2021/09/23 08:25:59;;;;;;;6.27;2.90;;;19.30;99.90;;;;;;5040362;28;20175;-81
2021/09/23 08:28:27;;;;;;;3.00;2.80;;;19.80;99.90;;;;;;5040382;28;20240;-82
2021/09/23 08:30:53;;;;;;;5.33;3.30;;;20.00;99.90;;;;;;5040114;28;20263;-82
2021/09/23 08:33:19;;;;;;;4.17;3.40;;;19.90;99.90;;;;;;5040835;28;20262;-82
2021/09/23 08:35:45;;;;;;;4.93;3.10;;;20.20;99.90;;;;;;5040576;28;20252;-82
2021/09/23 08:38:11;;;;;;;3.50;3.20;;;20.30;99.90;;;;;;5041022;28;20202;-82
2021/09/23 08:40:38;;;;;;;3.70;3.40;;;20.60;99.90;;;;;;5040208;28;20695;-82
2021/09/23 08:43:04;;;;;;;5.03;2.97;;;20.80;99.90;;;;;;5040401;28;20233;-82
2021/09/23 08:45:30;;;;;;;5.50;2.90;;;20.80;99.90;;;;;;5040985;28;20184;-82
2021/09/23 08:47:57;;;;;;;4.90;3.17;;;21.00;99.90;;;;;;5042258;28;20221;-82
2021/09/23 08:50:22;;;;;;;4.57;3.17;;;21.10;99.90;;;;;;5040867;28;20182;-82
2021/09/23 08:52:48;;;;;;;3.47;3.00;;;21.20;99.90;;;;;;5041887;28;20535;-82
2021/09/23 08:55:26;;;;;;;3.17;2.87;;;21.40;99.90;;;;;;5041035;28;20206;-82
2021/09/23 08:57:52;;;;;;;3.37;2.60;;;21.20;99.90;;;;;;5041750;28;20219;-82
2021/09/23 09:00:18;;;;;;;3.93;2.90;;;21.10;99.90;;;;;;5040970;28;20537;-82
2021/09/23 09:03:08;;;;;;;3.40;3.10;;;21.00;99.90;;;;;;5041817;28;20266;-82
2021/09/23 09:05:37;;;;;;;3.93;2.70;;;21.10;99.90;;;;;;5041638;28;20237;-82
2021/09/23 09:08:04;;;;;;;4.13;2.73;;;21.50;99.90;;;;;;5040325;28;20735;-82
2021/09/23 09:10:30;;;;;;;5.13;3.00;;;21.70;99.90;;;;;;5039875;28;20644;-80
2021/09/23 09:12:59;;;;;;;2.90;2.60;;;21.80;99.90;;;;;;5040511;28;20179;-80
2021/09/23 09:15:50;;;;;;;3.40;2.90;;;21.90;99.90;;;;;;5041733;28;20203;-80
2021/09/23 09:18:22;;;;;;;2.90;2.63;;;21.70;99.90;;;;;;5040432;28;20190;-80
2021/09/23 09:21:03;;;;;;;2.60;2.40;;;21.80;99.90;;;;;;5041161;28;20190;-82
2021/09/23 09:23:47;;;;;;;2.70;2.50;;;21.80;99.90;;;;;;5042396;28;20535;-82
2021/09/23 09:26:32;;;;;;;3.20;2.90;;;21.80;99.90;;;;;;5037017;28;20636;-82
2021/09/23 09:29:02;;;;;;;4.87;2.67;;;21.90;99.90;;;;;;5038298;28;20241;-81
2021/09/23 09:31:28;;;;;;;3.57;2.90;;;21.50;99.90;;;;;;5041765;28;20624;-82
2021/09/23 09:33:59;;;;;;;5.33;3.47;;;21.40;99.90;;;;;;5042353;28;20242;-82
2021/09/23 09:36:33;;;;;;;5.43;3.20;;;21.50;99.90;;;;;;5046449;28;20664;-82
2021/09/23 09:39:06;;;;;;;3.27;2.97;;;21.90;99.90;;;;;;5048176;28;20174;-82
2021/09/23 09:41:35;;;;;;;3.27;3.00;;;22.00;99.90;;;;;;5043553;28;20178;-82
2021/09/23 09:44:04;;;;;;;3.70;3.23;;;22.10;99.90;;;;;;5040572;28;20868;-82
2021/09/23 09:46:35;;;;;;;2.87;2.67;;;22.30;99.90;;;;;;5038903;28;20260;-83
2021/09/23 09:49:02;;;;;;;2.93;2.73;;;22.30;99.90;;;;;;5040328;28;20170;-82
2021/09/23 09:51:49;;;;;;;3.07;2.70;;;22.30;99.90;;;;;;5039772;28;20185;-82
2021/09/23 09:54:16;;;;;;;2.90;2.60;;;22.40;99.90;;;;;;5040003;28;20216;-82
2021/09/23 09:56:45;;;;;;;4.53;2.77;;;22.40;99.90;;;;;;5039641;28;20695;-82
2021/09/23 09:59:16;;;;;;;2.47;2.27;;;22.70;99.90;;;;;;5040127;28;20636;-82
2021/09/23 10:01:47;;;;;;;2.63;2.40;;;22.70;99.90;;;;;;5038812;28;20187;-82
2021/09/23 10:04:14;;;;;;;2.77;2.40;;;22.70;99.90;;;;;;5038357;28;20679;-82
2021/09/23 10:06:41;;;;;;;3.93;2.70;;;22.90;99.90;;;;;;5039905;28;20196;-84
2021/09/23 10:09:09;;;;;;;4.27;2.70;;;22.70;99.90;;;;;;5038492;28;20185;-81
2021/09/23 10:11:38;;;;;;;3.23;2.53;;;23.00;99.90;;;;;;5038809;28;20180;-82
2021/09/23 10:14:04;;;;;;;3.27;2.60;;;23.30;99.90;;;;;;5039527;28;20184;-82
2021/09/23 10:16:32;;;;;;;3.83;2.53;;;23.30;99.90;;;;;;5038448;28;20333;-82
2021/09/23 10:18:58;;;;;;;3.47;2.50;;;23.60;99.90;;;;;;5040760;28;20181;-82
2021/09/23 10:21:25;;;;;;;3.17;2.63;;;23.70;99.90;;;;;;5037941;28;20274;-82
2021/09/23 10:23:52;;;;;;;3.00;2.80;;;23.90;99.90;;;;;;5039225;28;20258;-82
2021/09/23 10:26:23;;;;;;;2.73;2.53;;;24.00;99.90;;;;;;5040333;28;20256;-82
2021/09/23 10:28:50;;;;;;;6.30;2.40;;;24.00;99.90;;;;;;5040382;28;20193;-82
2021/09/23 10:31:21;;;;;;;2.87;2.63;;;23.90;99.90;;;;;;5043744;28;20170;-81
2021/09/23 10:33:47;;;;;;;3.27;2.80;;;24.00;99.90;;;;;;5038751;28;20195;-82
2021/09/23 10:36:15;;;;;;;4.20;2.80;;;24.00;99.90;;;;;;5040883;28;20218;-82
2021/09/23 10:38:42;;;;;;;3.40;3.10;;;23.90;99.90;;;;;;5043412;28;20538;-82
2021/09/23 10:41:10;;;;;;;3.13;2.83;;;24.10;99.90;;;;;;5052965;28;20203;-82
2021/09/23 10:43:38;;;;;;;2.73;2.53;;;24.40;99.90;;;;;;5054927;28;20228;-82
2021/09/23 10:46:04;;;;;;;4.27;2.67;;;24.30;99.90;;;;;;5047278;28;20173;-81
2021/09/23 10:48:37;;;;;;;3.00;2.70;;;24.40;99.90;;;;;;5041520;28;20174;-81
2021/09/23 10:51:05;;;;;;;3.40;3.20;;;24.50;99.90;;;;;;5053678;28;20179;-81
2021/09/23 10:53:35;;;;;;;4.50;3.23;;;24.10;99.90;;;;;;5042410;28;20260;-81
2021/09/23 10:56:06;;;;;;;2.83;2.63;;;24.10;99.90;;;;;;5040758;28;20179;-82
2021/09/23 10:58:32;;;;;;;3.10;2.90;;;24.60;99.90;;;;;;5041738;28;20187;-81
2021/09/23 11:01:00;;;;;;;5.00;3.27;;;25.00;98.90;;;;;;5042965;28;20231;-82
2021/09/23 11:03:35;;;;;;;3.70;3.03;;;25.10;99.90;;;;;;5041769;28;20180;-81
2021/09/23 11:06:10;;;;;;;4.00;2.90;;;24.80;99.90;;;;;;5042623;28;20163;-82
2021/09/23 11:08:46;;;;;;;3.83;2.27;;;25.30;99.90;;;;;;5041376;28;20178;-81
2021/09/23 11:11:13;;;;;;;3.00;2.57;;;25.40;99.90;;;;;;5043421;28;20716;-81
2021/09/23 11:13:40;;;;;;;2.60;2.40;;;25.50;98.20;;;;;;5043136;28;20194;-82
2021/09/23 11:16:10;;;;;;;2.77;2.53;;;25.50;99.70;;;;;;5043652;28;20175;-82
2021/09/23 11:18:37;;;;;;;2.63;2.43;;;25.60;97.00;;;;;;5043079;28;20178;-82
2021/09/23 11:21:06;;;;;;;2.77;2.57;;;25.40;99.10;;;;;;5044080;28;20178;-82
2021/09/23 11:23:35;;;;;;;2.93;2.70;;;25.80;98.10;;;;;;5043610;28;20184;-82
2021/09/23 11:26:03;;;;;;;3.63;2.97;;;26.10;99.90;;;;;;5042893;28;20173;-80
2021/09/23 11:28:30;;;;;;;2.70;2.50;;;26.00;94.90;;;;;;5042579;28;20190;-81
2021/09/23 11:30:56;;;;;;;2.97;2.60;;;26.10;97.50;;;;;;5042013;28;20173;-82
2021/09/23 11:33:23;;;;;;;3.33;2.37;;;26.00;96.90;;;;;;5041264;28;20312;-82
2021/09/23 11:35:53;;;;;;;3.83;2.57;;;26.20;95.80;;;;;;5044883;28;20183;-81
2021/09/23 11:38:20;;;;;;;2.30;2.10;;;26.40;94.00;;;;;;5051421;28;20659;-82
2021/09/23 11:40:49;;;;;;;2.60;2.40;;;26.60;94.70;;;;;;5044990;28;20176;-80
2021/09/23 11:43:22;;;;;;;3.83;2.47;;;26.80;92.30;;;;;;5039185;28;20194;-80
2021/09/23 11:45:54;;;;;;;2.37;2.17;;;26.80;88.20;;;;;;5038369;28;20611;-80
2021/09/23 11:48:28;;;;;;;2.40;2.20;;;26.80;90.60;;;;;;5039460;28;20545;-80
2021/09/23 11:51:04;;;;;;;2.60;2.00;;;26.80;91.10;;;;;;5039925;28;20502;-80
2021/09/23 11:53:34;;;;;;;2.03;1.93;;;27.40;90.00;;;;;;5038598;28;20177;-79
2021/09/23 11:56:02;;;;;;;1.80;1.70;;;27.50;90.60;;;;;;5042180;28;20316;-82
2021/09/23 11:58:29;;;;;;;1.80;1.70;;;27.80;87.30;;;;;;5043896;28;20526;-82
2021/09/23 12:00:55;;;;;;;1.50;1.40;;;27.70;80.30;;;;;;5042257;28;20182;-83
2021/09/23 12:03:22;;;;;;;2.70;1.80;;;27.80;78.20;;;;;;5043629;28;20225;-84
2021/09/23 12:05:50;;;;;;;3.70;1.70;;;27.70;80.90;;;;;;5042113;28;20171;-82
2021/09/23 12:08:22;;;;;;;1.90;1.80;;;27.70;78.80;;;;;;5043311;28;20194;-82
2021/09/23 12:10:53;;;;;;;3.77;1.97;;;28.00;82.80;;;;;;5042078;28;20181;-80
2021/09/23 12:13:30;;;;;;;2.77;1.80;;;28.70;79.60;;;;;;5042765;28;20170;-80
2021/09/23 12:15:58;;;;;;;2.10;1.90;;;29.00;76.50;;;;;;5042203;28;20239;-80
2021/09/23 12:18:26;;;;;;;2.20;2.00;;;29.40;76.00;;;;;;5042426;28;20194;-82
2021/09/23 12:20:54;;;;;;;2.07;1.60;;;29.70;73.20;;;;;;5042037;28;20348;-80
2021/09/23 12:23:27;;;;;;;2.73;2.00;;;29.40;71.20;;;;;;5043842;28;20175;-80
2021/09/23 12:26:12;;;;;;;2.70;1.87;;;29.60;72.60;;;;;;5042497;28;20635;-81
2021/09/23 12:28:40;;;;;;;2.20;2.00;;;30.30;69.50;;;;;;5043049;28;20195;-80
2021/09/23 12:31:08;;;;;;;2.07;1.90;;;29.70;68.60;;;;;;5044511;28;20633;-80
2021/09/23 12:33:33;;;;;;;1.93;1.73;;;29.60;72.10;;;;;;5042737;28;20252;-80
2021/09/23 12:36:06;;;;;;;1.90;1.60;;;30.00;72.20;;;;;;5042293;28;20623;-81
2021/09/23 12:38:32;;;;;;;2.20;2.00;;;30.10;66.80;;;;;;5043381;28;20192;-80
2021/09/23 12:40:58;;;;;;;1.90;1.80;;;30.20;64.90;;;;;;5045221;28;20178;-80
2021/09/23 12:43:32;;;;;;;2.20;2.00;;;29.60;62.80;;;;;;5045288;28;20177;-80
2021/09/23 12:46:11;;;;;;;2.30;1.77;;;29.50;68.60;;;;;;5043822;28;20179;-81
2021/09/23 12:48:38;;;;;;;2.10;1.90;;;29.50;66.10;;;;;;5042604;28;20184;-80
2021/09/23 12:51:04;;;;;;;2.07;1.87;;;29.80;67.60;;;;;;5042111;28;20177;-80